Time;durP1;ratioP1;P1;durP2;ratioP2;P2;SDS_P1;SDS_P2;PMS_P1;PMS_P2;Temp;Humidity;BMP_temperature;BMP_pressure;BME280_temperature;BME280_humidity;BME280_pressure;Samples;Min_cycle;Max_cycle;Signal;HPM_P1;HPM_P2
2022/01/08 00:00:48;;;;;;;18.40;11.15;;;;;;;;;;5013680;28;20162;-60
2022/01/08 00:03:14;;;;;;;16.88;11.02;;;;;;;;;;5013889;28;20177;-60
2022/01/08 00:05:40;;;;;;;17.60;11.23;;;;;;;;;;5013591;28;20173;-60
2022/01/08 00:08:06;;;;;;;17.70;10.93;;;;;;;;;;5013928;28;20719;-60
2022/01/08 00:10:32;;;;;;;17.30;10.35;;;;;;;;;;5013710;28;20162;-59
2022/01/08 00:13:02;;;;;;;16.58;11.27;;;;;;;;;;5013532;28;20559;-60
2022/01/08 00:15:27;;;;;;;17.95;10.82;;;;;;;;;;5013670;28;20194;-58
2022/01/08 00:17:53;;;;;;;19.95;10.88;;;;;;;;;;5013848;28;20250;-60
2022/01/08 00:20:19;;;;;;;17.45;11.13;;;;;;;;;;5013395;28;20170;-59
2022/01/08 00:22:45;;;;;;;17.05;10.93;;;;;;;;;;5013474;28;20198;-59
2022/01/08 00:25:12;;;;;;;16.38;10.80;;;;;;;;;;5013386;28;20167;-59
2022/01/08 00:27:37;;;;;;;19.65;12.18;;;;;;;;;;5015730;28;20263;-60
2022/01/08 00:30:04;;;;;;;19.23;12.07;;;;;;;;;;5017145;28;20205;-58
2022/01/08 00:32:30;;;;;;;20.70;10.98;;;;;;;;;;5017084;28;20173;-60
2022/01/08 00:34:56;;;;;;;19.45;11.35;;;;;;;;;;5016915;28;20592;-59
2022/01/08 00:37:21;;;;;;;18.73;11.27;;;;;;;;;;5016841;28;20241;-60
2022/01/08 00:39:48;;;;;;;20.35;11.95;;;;;;;;;;5017294;28;20498;-60
2022/01/08 00:42:14;;;;;;;20.50;12.40;;;;;;;;;;5017153;28;20177;-59
2022/01/08 00:44:40;;;;;;;19.27;11.68;;;;;;;;;;5017138;28;20540;-59
2022/01/08 00:47:06;;;;;;;21.80;11.63;;;;;;;;;;5017052;28;20201;-58
2022/01/08 00:49:32;;;;;;;22.95;12.25;;;;;;;;;;5016817;28;20190;-60
2022/01/08 00:51:58;;;;;;;19.55;12.15;;;;;;;;;;5016751;28;20229;-60
2022/01/08 00:54:24;;;;;;;17.17;11.65;;;;;;;;;;5016512;28;20568;-60
2022/01/08 00:56:50;;;;;;;19.67;12.02;;;;;;;;;;5016641;28;20170;-59
2022/01/08 00:59:16;;;;;;;20.83;11.85;;;;;;;;;;5016983;28;20181;-59
2022/01/08 01:01:42;;;;;;;18.75;11.38;;;;;;;;;;5016844;28;20170;-60
2022/01/08 01:04:08;;;;;;;19.88;12.07;;;;;;;;;;5016504;28;20609;-59
2022/01/08 01:06:34;;;;;;;20.25;11.68;;;;;;;;;;5016504;28;20166;-59
2022/01/08 01:09:00;;;;;;;19.95;11.43;;;;;;;;;;5016488;28;20185;-59
2022/01/08 01:11:26;;;;;;;19.42;12.68;;;;;;;;;;5016462;28;20174;-56
2022/01/08 01:13:52;;;;;;;20.05;11.68;;;;;;;;;;5016362;28;20340;-59
2022/01/08 01:16:19;;;;;;;19.58;11.68;;;;;;;;;;5016506;28;20162;-59
2022/01/08 01:18:46;;;;;;;19.08;11.73;;;;;;;;;;5016591;28;20170;-58
2022/01/08 01:21:12;;;;;;;20.30;11.57;;;;;;;;;;5016379;28;20252;-58
2022/01/08 01:23:42;;;;;;;23.75;12.90;;;;;;;;;;4999084;28;20564;-58
2022/01/08 01:26:13;;;;;;;21.50;13.65;;;;;;;;;;5016502;28;20175;-59
2022/01/08 01:41:11;;;;;;;20.77;11.60;;;;;;;;;;5016390;28;20165;-59
2022/01/08 01:42:38;;;;;;;19.10;11.63;;;;;;;;;;5018454;28;20166;-60
2022/01/08 01:47:48;;;;;;;18.50;11.75;;;;;;;;;;5018403;28;20192;-60
2022/01/08 01:50:14;;;;;;;19.98;11.93;;;;;;;;;;5018758;28;20174;-59
2022/01/08 01:52:40;;;;;;;19.10;11.75;;;;;;;;;;5018456;28;20716;-60
2022/01/08 01:55:06;;;;;;;19.35;12.95;;;;;;;;;;5018455;28;20190;-60
2022/01/08 01:57:32;;;;;;;29.17;17.63;;;;;;;;;;5018586;28;20166;-60
2022/01/08 01:59:58;;;;;;;35.55;22.08;;;;;;;;;;5018566;28;20268;-60
2022/01/08 02:02:24;;;;;;;24.50;14.68;;;;;;;;;;5026330;28;20630;-58
2022/01/08 02:04:50;;;;;;;21.67;13.25;;;;;;;;;;5035967;28;20220;-58
2022/01/08 02:07:16;;;;;;;18.90;12.45;;;;;;;;;;5036230;28;20170;-61
2022/01/08 02:09:42;;;;;;;19.60;11.90;;;;;;;;;;5036917;28;20248;-58
2022/01/08 02:12:17;;;;;;;21.80;12.02;;;;;;;;;;5036207;28;20193;-57
2022/01/08 02:14:43;;;;;;;19.33;12.27;;;;;;;;;;5024855;28;20198;-58
2022/01/08 02:17:09;;;;;;;20.35;11.35;;;;;;;;;;5016161;28;20181;-58
2022/01/08 02:19:35;;;;;;;19.42;12.38;;;;;;;;;;4998019;28;20520;-58
2022/01/08 02:22:03;;;;;;;19.67;12.95;;;;;;;;;;5015011;28;20498;-58
2022/01/08 02:24:30;;;;;;;20.27;12.38;;;;;;;;;;5015217;28;20174;-58
2022/01/08 02:26:56;;;;;;;22.25;12.80;;;;;;;;;;5015318;28;20482;-59
2022/01/08 02:29:24;;;;;;;21.20;12.82;;;;;;;;;;5014956;28;20174;-60
2022/01/08 02:32:01;;;;;;;18.40;11.60;;;;;;;;;;5015162;28;20174;-60
2022/01/08 02:34:28;;;;;;;17.92;11.07;;;;;;;;;;5014844;28;20567;-60
2022/01/08 02:36:54;;;;;;;17.40;10.68;;;;;;;;;;5015210;28;20501;-60
2022/01/08 02:39:20;;;;;;;19.02;11.48;;;;;;;;;;5015093;28;20177;-60
2022/01/08 02:41:46;;;;;;;18.17;10.70;;;;;;;;;;5014743;28;20167;-60
2022/01/08 02:44:13;;;;;;;18.92;11.13;;;;;;;;;;5015283;28;20572;-59
2022/01/08 02:46:40;;;;;;;19.50;11.60;;;;;;;;;;5014807;28;20166;-60
2022/01/08 02:49:06;;;;;;;21.80;12.75;;;;;;;;;;5014237;28;20177;-60
2022/01/08 02:51:34;;;;;;;19.08;11.25;;;;;;;;;;5014488;28;20174;-60
2022/01/08 02:54:00;;;;;;;19.23;11.50;;;;;;;;;;5014379;28;20209;-59
2022/01/08 02:56:26;;;;;;;19.80;11.55;;;;;;;;;;5014638;28;20633;-59
2022/01/08 02:58:52;;;;;;;18.42;10.82;;;;;;;;;;5014380;28;20198;-60
2022/01/08 03:01:18;;;;;;;20.88;12.23;;;;;;;;;;5014509;28;20177;-59
2022/01/08 03:03:44;;;;;;;18.08;11.80;;;;;;;;;;5014939;28;20197;-58
2022/01/08 03:06:10;;;;;;;17.83;10.50;;;;;;;;;;5014706;28;20672;-60
2022/01/08 03:08:36;;;;;;;20.13;11.02;;;;;;;;;;5014231;28;20198;-58
2022/01/08 03:11:02;;;;;;;18.35;11.05;;;;;;;;;;5014308;28;20208;-59
2022/01/08 03:13:28;;;;;;;20.67;11.77;;;;;;;;;;5014421;28;20163;-59
2022/01/08 03:15:54;;;;;;;19.83;10.88;;;;;;;;;;5014685;28;20201;-58
2022/01/08 03:18:20;;;;;;;19.50;10.38;;;;;;;;;;5015016;28;20209;-58
2022/01/08 03:21:00;;;;;;;17.40;10.90;;;;;;;;;;5016394;28;20162;-59
2022/01/08 03:23:34;;;;;;;18.52;10.52;;;;;;;;;;5019728;28;20155;-60
2022/01/08 03:26:00;;;;;;;17.13;10.30;;;;;;;;;;5014137;28;20181;-58
2022/01/08 03:28:26;;;;;;;17.27;10.05;;;;;;;;;;5023039;28;20232;-60
2022/01/08 03:30:52;;;;;;;18.00;9.60;;;;;;;;;;5020686;28;20177;-58
2022/01/08 03:33:18;;;;;;;16.52;10.13;;;;;;;;;;5014079;28;20249;-58
2022/01/08 03:35:44;;;;;;;13.23;9.43;;;;;;;;;;5013903;28;20194;-58
2022/01/08 03:38:10;;;;;;;14.80;8.63;;;;;;;;;;5014075;28;20190;-59
2022/01/08 03:40:36;;;;;;;16.77;9.73;;;;;;;;;;5014103;28;20166;-60
2022/01/08 03:43:01;;;;;;;15.65;9.43;;;;;;;;;;5014280;28;20170;-59
2022/01/08 03:45:27;;;;;;;13.43;8.98;;;;;;;;;;5013979;28;20499;-58
2022/01/08 03:48:06;;;;;;;16.05;9.10;;;;;;;;;;5013772;28;20186;-60
2022/01/08 03:50:32;;;;;;;15.90;9.32;;;;;;;;;;5014192;28;20165;-60
2022/01/08 03:52:58;;;;;;;17.30;9.77;;;;;;;;;;5013750;28;20185;-61
2022/01/08 03:55:24;;;;;;;13.13;8.90;;;;;;;;;;5013710;28;20331;-60
2022/01/08 03:57:50;;;;;;;14.85;8.63;;;;;;;;;;5013915;28;20253;-60
2022/01/08 04:00:16;;;;;;;14.68;7.85;;;;;;;;;;5013785;28;20545;-60
2022/01/08 04:02:42;;;;;;;14.07;8.75;;;;;;;;;;5016029;28;20225;-61
2022/01/08 04:05:08;;;;;;;17.13;9.70;;;;;;;;;;5017677;28;20170;-60
2022/01/08 04:07:34;;;;;;;15.80;8.90;;;;;;;;;;5017619;28;20174;-59
2022/01/08 04:10:00;;;;;;;15.13;8.60;;;;;;;;;;5017607;28;20173;-59
2022/01/08 04:12:38;;;;;;;13.30;8.23;;;;;;;;;;5017693;28;20166;-58
2022/01/08 04:15:09;;;;;;;14.10;8.13;;;;;;;;;;5017375;28;20182;-60
2022/01/08 04:17:35;;;;;;;11.70;7.88;;;;;;;;;;5017857;28;20146;-60
2022/01/08 04:20:01;;;;;;;13.00;7.82;;;;;;;;;;5017700;28;20198;-59
2022/01/08 04:22:28;;;;;;;14.52;7.35;;;;;;;;;;5017718;28;20244;-60
2022/01/08 04:24:56;;;;;;;13.25;7.00;;;;;;;;;;5017632;28;20185;-58
2022/01/08 04:27:21;;;;;;;10.35;6.60;;;;;;;;;;5017741;28;20174;-58
2022/01/08 04:29:47;;;;;;;14.50;7.18;;;;;;;;;;5017246;28;20250;-59
2022/01/08 04:32:13;;;;;;;12.35;6.72;;;;;;;;;;5017950;28;20606;-59
2022/01/08 04:34:39;;;;;;;11.15;6.97;;;;;;;;;;5017280;28;20190;-60
2022/01/08 04:37:05;;;;;;;12.20;6.47;;;;;;;;;;5017111;28;20178;-59
2022/01/08 04:39:31;;;;;;;11.30;6.72;;;;;;;;;;5017284;28;20621;-60
2022/01/08 04:41:57;;;;;;;10.88;6.60;;;;;;;;;;5016978;28;20181;-60
2022/01/08 04:44:23;;;;;;;11.25;6.80;;;;;;;;;;5017094;28;20185;-58
2022/01/08 04:46:49;;;;;;;14.02;6.75;;;;;;;;;;5017286;28;20163;-60
2022/01/08 04:49:15;;;;;;;10.10;6.35;;;;;;;;;;5016756;28;20173;-60
2022/01/08 04:51:41;;;;;;;11.20;6.10;;;;;;;;;;5016826;28;20174;-60
2022/01/08 04:54:06;;;;;;;9.05;6.15;;;;;;;;;;5016691;28;20268;-60
2022/01/08 04:56:33;;;;;;;9.77;6.25;;;;;;;;;;5016766;28;20174;-59
2022/01/08 04:58:58;;;;;;;10.60;6.75;;;;;;;;;;5016673;28;20520;-60
2022/01/08 05:01:24;;;;;;;11.15;6.07;;;;;;;;;;5016941;28;20166;-60
2022/01/08 05:03:50;;;;;;;9.43;6.25;;;;;;;;;;5016602;28;20510;-60
2022/01/08 05:06:16;;;;;;;11.70;5.95;;;;;;;;;;5016601;28;20189;-60
2022/01/08 05:08:42;;;;;;;11.57;6.50;;;;;;;;;;5016775;28;20173;-60
2022/01/08 05:11:08;;;;;;;9.85;5.60;;;;;;;;;;5017132;28;20488;-58
2022/01/08 05:13:34;;;;;;;9.65;6.15;;;;;;;;;;5015897;28;20166;-60
2022/01/08 05:16:00;;;;;;;11.13;6.30;;;;;;;;;;5016651;28;20525;-58
2022/01/08 05:18:29;;;;;;;10.82;6.32;;;;;;;;;;5016428;28;20491;-59
2022/01/08 05:21:08;;;;;;;9.82;6.13;;;;;;;;;;5016603;28;20178;-61
2022/01/08 05:23:34;;;;;;;9.00;6.07;;;;;;;;;;5016520;28;20150;-59
2022/01/08 05:26:00;;;;;;;11.82;6.25;;;;;;;;;;5016176;28;20174;-60
2022/01/08 05:28:25;;;;;;;9.80;5.72;;;;;;;;;;5016396;28;20606;-62
2022/01/08 05:30:51;;;;;;;11.55;6.22;;;;;;;;;;5016214;28;20505;-59
2022/01/08 05:33:17;;;;;;;9.90;6.00;;;;;;;;;;5016173;28;20181;-58
2022/01/08 05:35:44;;;;;;;8.35;6.28;;;;;;;;;;5015896;28;20201;-59
2022/01/08 05:38:10;;;;;;;10.75;6.32;;;;;;;;;;5015919;28;20497;-59
2022/01/08 05:40:36;;;;;;;10.43;6.03;;;;;;;;;;5015899;28;20189;-59
2022/01/08 05:43:02;;;;;;;8.70;6.07;;;;;;;;;;5016041;28;20598;-60
2022/01/08 05:45:28;;;;;;;11.13;6.68;;;;;;;;;;5015953;28;20177;-60
2022/01/08 05:47:54;;;;;;;12.00;6.68;;;;;;;;;;5015829;28;20181;-59
2022/01/08 05:50:20;;;;;;;9.73;6.10;;;;;;;;;;5015700;28;20178;-60
2022/01/08 05:52:48;;;;;;;11.82;7.00;;;;;;;;;;5015629;28;20186;-59
2022/01/08 05:55:14;;;;;;;11.52;7.25;;;;;;;;;;5015936;28;20226;-59
2022/01/08 05:57:40;;;;;;;11.55;7.50;;;;;;;;;;5015637;28;20221;-60
2022/01/08 06:00:07;;;;;;;13.35;7.13;;;;;;;;;;5015529;28;20163;-61
2022/01/08 06:02:33;;;;;;;12.73;6.45;;;;;;;;;;5015772;28;20253;-60
2022/01/08 06:04:59;;;;;;;11.43;7.00;;;;;;;;;;5015326;28;20170;-58
2022/01/08 06:07:25;;;;;;;13.00;7.13;;;;;;;;;;5015655;28;20166;-61
2022/01/08 06:09:51;;;;;;;11.27;6.80;;;;;;;;;;5015593;28;20182;-60
2022/01/08 06:12:17;;;;;;;10.63;6.57;;;;;;;;;;5015752;28;20170;-60
2022/01/08 06:14:43;;;;;;;9.77;6.68;;;;;;;;;;5015110;28;20204;-60
2022/01/08 06:17:09;;;;;;;13.38;6.47;;;;;;;;;;5015234;28;20177;-61
2022/01/08 06:19:35;;;;;;;9.02;6.53;;;;;;;;;;5015343;28;20174;-60
2022/01/08 06:22:01;;;;;;;11.65;6.90;;;;;;;;;;5015207;28;20178;-60
2022/01/08 06:24:27;;;;;;;10.98;6.47;;;;;;;;;;5014152;28;20174;-60
2022/01/08 06:26:53;;;;;;;10.27;7.18;;;;;;;;;;5015442;28;20188;-61
2022/01/08 06:29:19;;;;;;;10.90;6.85;;;;;;;;;;5014903;28;20189;-60
2022/01/08 06:31:45;;;;;;;8.07;5.75;;;;;;;;;;5015009;28;20180;-60
2022/01/08 06:34:11;;;;;;;9.95;6.30;;;;;;;;;;5015041;28;20201;-61
2022/01/08 06:36:37;;;;;;;14.63;6.68;;;;;;;;;;5014909;28;20198;-61
2022/01/08 06:39:03;;;;;;;10.15;6.20;;;;;;;;;;5014908;28;20204;-60
2022/01/08 06:41:29;;;;;;;10.40;6.70;;;;;;;;;;5014734;28;20193;-61
2022/01/08 06:43:56;;;;;;;11.30;6.90;;;;;;;;;;5014985;28;20277;-59
2022/01/08 06:46:22;;;;;;;9.85;6.95;;;;;;;;;;5014740;28;20479;-59
2022/01/08 06:48:48;;;;;;;12.23;7.72;;;;;;;;;;5014811;28;20603;-59
2022/01/08 06:51:14;;;;;;;10.00;7.07;;;;;;;;;;5014846;28;20185;-60
2022/01/08 06:53:40;;;;;;;10.77;7.00;;;;;;;;;;5014540;28;20183;-60
2022/01/08 06:56:06;;;;;;;10.43;6.43;;;;;;;;;;5014517;28;20649;-61
2022/01/08 06:58:32;;;;;;;11.00;7.35;;;;;;;;;;5014603;28;20603;-60
2022/01/08 07:00:58;;;;;;;11.15;6.78;;;;;;;;;;5014836;28;20195;-60
2022/01/08 07:03:24;;;;;;;10.65;7.13;;;;;;;;;;5014929;28;20212;-60
2022/01/08 07:05:50;;;;;;;10.10;7.15;;;;;;;;;;5014669;28;20260;-61
2022/01/08 07:08:16;;;;;;;11.50;7.45;;;;;;;;;;5014678;28;20166;-61
2022/01/08 07:10:42;;;;;;;11.63;7.30;;;;;;;;;;5014703;28;20166;-61
2022/01/08 07:13:08;;;;;;;11.50;6.60;;;;;;;;;;4997152;28;20214;-60
2022/01/08 07:15:34;;;;;;;12.52;7.57;;;;;;;;;;5014140;28;20661;-59
2022/01/08 07:18:00;;;;;;;11.52;7.35;;;;;;;;;;5014228;28;20162;-61
2022/01/08 07:20:26;;;;;;;12.32;7.93;;;;;;;;;;5014210;28;20158;-61
2022/01/08 07:22:52;;;;;;;12.02;7.65;;;;;;;;;;5014211;28;20167;-61
2022/01/08 07:25:18;;;;;;;13.15;8.48;;;;;;;;;;5014778;28;20174;-60
2022/01/08 07:27:44;;;;;;;13.05;7.43;;;;;;;;;;5014220;28;20232;-60
2022/01/08 07:30:10;;;;;;;11.10;7.72;;;;;;;;;;5014075;28;20204;-60
2022/01/08 07:32:40;;;;;;;11.98;7.40;;;;;;;;;;5014803;28;20270;-61
2022/01/08 07:35:07;;;;;;;12.10;7.63;;;;;;;;;;5014059;28;20213;-60
2022/01/08 07:37:32;;;;;;;12.80;7.60;;;;;;;;;;5014357;28;20537;-60
2022/01/08 07:39:58;;;;;;;11.63;7.55;;;;;;;;;;5014274;28;20173;-61
2022/01/08 07:42:24;;;;;;;11.88;7.90;;;;;;;;;;5013881;28;20162;-60
2022/01/08 07:44:50;;;;;;;13.90;7.57;;;;;;;;;;5014110;28;20169;-61
2022/01/08 07:47:17;;;;;;;14.13;8.00;;;;;;;;;;5013982;28;20597;-61
2022/01/08 07:49:43;;;;;;;11.82;7.57;;;;;;;;;;5014500;28;20174;-58
2022/01/08 07:52:09;;;;;;;13.30;7.50;;;;;;;;;;5013584;28;20224;-61
2022/01/08 07:54:35;;;;;;;11.20;7.43;;;;;;;;;;5013817;28;20201;-60
2022/01/08 07:57:02;;;;;;;11.75;7.45;;;;;;;;;;5013967;28;20190;-60
2022/01/08 07:59:28;;;;;;;10.32;7.03;;;;;;;;;;5013775;28;20189;-60
2022/01/08 08:01:54;;;;;;;10.88;7.13;;;;;;;;;;5013952;28;20269;-60
2022/01/08 08:04:19;;;;;;;11.82;7.05;;;;;;;;;;5014044;28;20174;-60
2022/01/08 08:06:47;;;;;;;10.35;6.68;;;;;;;;;;5013928;28;20174;-60
2022/01/08 08:09:13;;;;;;;13.18;7.32;;;;;;;;;;5014203;28;20186;-60
2022/01/08 08:11:39;;;;;;;13.20;7.00;;;;;;;;;;5013709;28;20170;-60
2022/01/08 08:14:05;;;;;;;11.07;6.88;;;;;;;;;;5013532;28;20180;-61
2022/01/08 08:16:31;;;;;;;10.68;6.65;;;;;;;;;;4996217;28;20163;-61
2022/01/08 08:18:57;;;;;;;12.93;7.32;;;;;;;;;;5013556;28;20181;-60
2022/01/08 08:21:23;;;;;;;13.23;7.40;;;;;;;;;;5013553;28;20189;-60
2022/01/08 08:23:48;;;;;;;10.98;6.93;;;;;;;;;;5013820;28;20162;-60
2022/01/08 08:26:14;;;;;;;14.43;7.45;;;;;;;;;;5013561;28;20178;-60
2022/01/08 08:28:40;;;;;;;10.30;6.82;;;;;;;;;;5014045;28;20174;-60
2022/01/08 08:31:07;;;;;;;13.60;7.03;;;;;;;;;;5013468;28;20193;-60
2022/01/08 08:33:33;;;;;;;10.48;6.47;;;;;;;;;;5013471;28;20250;-59
2022/01/08 08:35:59;;;;;;;10.43;6.53;;;;;;;;;;5013249;28;20320;-60
2022/01/08 08:38:25;;;;;;;13.00;7.07;;;;;;;;;;4996559;28;20166;-60
2022/01/08 08:40:51;;;;;;;13.25;7.15;;;;;;;;;;5013464;28;20166;-60
2022/01/08 08:43:19;;;;;;;10.43;6.10;;;;;;;;;;5014064;28;20485;-61
2022/01/08 08:45:45;;;;;;;11.55;6.68;;;;;;;;;;5013353;28;20606;-60
2022/01/08 08:48:11;;;;;;;11.90;6.65;;;;;;;;;;4997359;28;20174;-60
2022/01/08 08:50:37;;;;;;;11.38;6.55;;;;;;;;;;5016866;28;20197;-61
2022/01/08 08:53:03;;;;;;;12.07;6.43;;;;;;;;;;5016854;28;20240;-61
2022/01/08 08:55:29;;;;;;;11.45;6.38;;;;;;;;;;5017924;28;20229;-60
2022/01/08 08:57:55;;;;;;;10.45;6.35;;;;;;;;;;5016874;28;20174;-61
2022/01/08 09:00:21;;;;;;;11.95;6.55;;;;;;;;;;5016837;28;20167;-61
2022/01/08 09:02:47;;;;;;;13.45;6.47;;;;;;;;;;5016799;28;20171;-60
2022/01/08 09:05:13;;;;;;;11.38;6.38;;;;;;;;;;5016678;28;20170;-61
2022/01/08 09:07:39;;;;;;;11.50;6.70;;;;;;;;;;5016645;28;20173;-60
2022/01/08 09:10:06;;;;;;;12.45;6.53;;;;;;;;;;5016742;28;20162;-61
2022/01/08 09:12:32;;;;;;;13.32;7.18;;;;;;;;;;5016460;28;20166;-60
2022/01/08 09:14:58;;;;;;;12.57;6.88;;;;;;;;;;5016681;28;20280;-61
2022/01/08 09:17:25;;;;;;;11.68;7.05;;;;;;;;;;5016629;28;20590;-60
2022/01/08 09:19:51;;;;;;;12.55;6.93;;;;;;;;;;5016794;28;20198;-60
2022/01/08 09:22:18;;;;;;;14.77;6.63;;;;;;;;;;5016547;28;20166;-60
2022/01/08 09:24:44;;;;;;;11.40;7.13;;;;;;;;;;5016179;28;20181;-61
2022/01/08 09:27:10;;;;;;;11.57;6.20;;;;;;;;;;5016533;28;20167;-60
2022/01/08 09:29:36;;;;;;;12.30;7.30;;;;;;;;;;5016166;28;20174;-60
2022/01/08 09:32:05;;;;;;;12.55;7.35;;;;;;;;;;5016586;28;20170;-60
2022/01/08 09:34:31;;;;;;;11.02;6.88;;;;;;;;;;5016067;28;20622;-61
2022/01/08 09:36:58;;;;;;;14.63;7.07;;;;;;;;;;5016212;28;20629;-61
2022/01/08 09:39:24;;;;;;;14.00;7.47;;;;;;;;;;5016582;28;20167;-61
2022/01/08 09:41:50;;;;;;;12.68;7.38;;;;;;;;;;5016099;28;20221;-61
2022/01/08 09:44:16;;;;;;;12.45;7.25;;;;;;;;;;4998981;28;20178;-61
2022/01/08 09:46:42;;;;;;;13.75;7.20;;;;;;;;;;5015884;28;20173;-60
2022/01/08 09:49:08;;;;;;;14.43;7.80;;;;;;;;;;5016305;28;20671;-61
2022/01/08 09:51:34;;;;;;;11.98;6.85;;;;;;;;;;5015948;28;20166;-61
2022/01/08 09:54:01;;;;;;;14.30;7.60;;;;;;;;;;4998824;28;20328;-62
2022/01/08 09:56:28;;;;;;;12.73;6.82;;;;;;;;;;5015907;28;20257;-61
2022/01/08 09:58:55;;;;;;;13.25;6.78;;;;;;;;;;5015953;28;20177;-61
2022/01/08 10:01:28;;;;;;;11.65;6.35;;;;;;;;;;5015980;28;20174;-61
2022/01/08 10:03:54;;;;;;;10.57;6.63;;;;;;;;;;5015415;28;20628;-61
2022/01/08 10:06:24;;;;;;;11.98;6.57;;;;;;;;;;5016056;28;20551;-61
2022/01/08 10:08:50;;;;;;;12.32;6.30;;;;;;;;;;5015657;28;20162;-61
2022/01/08 10:11:16;;;;;;;11.77;6.40;;;;;;;;;;5015697;28;20494;-60
2022/01/08 10:13:43;;;;;;;10.65;6.80;;;;;;;;;;5015259;28;20213;-61
2022/01/08 10:19:16;;;;;;;10.27;6.07;;;;;;;;;;5015756;28;20236;-60
2022/01/08 10:21:43;;;;;;;10.90;5.82;;;;;;;;;;5015605;28;20613;-60
2022/01/08 10:24:10;;;;;;;10.55;5.85;;;;;;;;;;5015329;28;20502;-60
2022/01/08 10:26:36;;;;;;;9.77;6.05;;;;;;;;;;5015426;28;20254;-61
2022/01/08 10:29:04;;;;;;;8.95;5.80;;;;;;;;;;5015028;28;20166;-60
2022/01/08 10:31:53;;;;;;;11.93;6.88;;;;;;;;;;5015067;28;20613;-60
2022/01/08 10:34:21;;;;;;;9.10;5.70;;;;;;;;;;5007296;28;20245;-61
2022/01/08 10:37:04;;;;;;;10.80;6.13;;;;;;;;;;5014951;28;20162;-61
2022/01/08 10:39:31;;;;;;;10.40;6.47;;;;;;;;;;5015250;28;20177;-58
2022/01/08 10:41:58;;;;;;;12.23;5.82;;;;;;;;;;5015160;28;20178;-59
2022/01/08 10:44:25;;;;;;;10.20;6.18;;;;;;;;;;5014757;28;20663;-59
2022/01/08 10:46:54;;;;;;;11.68;6.50;;;;;;;;;;5014943;28;20170;-60
2022/01/08 10:49:40;;;;;;;9.85;6.13;;;;;;;;;;5014973;28;20178;-59
2022/01/08 10:52:10;;;;;;;10.88;6.53;;;;;;;;;;5014916;28;20201;-61
2022/01/08 10:54:37;;;;;;;9.80;5.95;;;;;;;;;;5014872;28;20614;-61
2022/01/08 10:57:05;;;;;;;11.63;6.43;;;;;;;;;;5014882;28;20197;-60
2022/01/08 10:59:31;;;;;;;10.80;6.40;;;;;;;;;;5014981;28;20174;-59
2022/01/08 11:01:58;;;;;;;11.48;6.78;;;;;;;;;;5014773;28;20545;-60
2022/01/08 11:04:35;;;;;;;11.45;6.40;;;;;;;;;;5014537;28;20166;-58
2022/01/08 11:07:14;;;;;;;12.88;6.57;;;;;;;;;;5014567;28;20174;-59
2022/01/08 11:09:42;;;;;;;12.45;6.45;;;;;;;;;;5022581;28;20668;-61
2022/01/08 11:12:10;;;;;;;9.68;6.15;;;;;;;;;;5024633;28;20181;-61
2022/01/08 11:14:59;;;;;;;11.32;6.72;;;;;;;;;;5024571;28;20343;-61
2022/01/08 11:17:33;;;;;;;10.60;6.43;;;;;;;;;;5024479;28;20154;-61
2022/01/08 11:20:01;;;;;;;10.45;6.80;;;;;;;;;;5023153;28;20235;-61
2022/01/08 11:22:29;;;;;;;11.98;6.88;;;;;;;;;;5027592;28;20166;-61
2022/01/08 11:24:57;;;;;;;12.63;6.50;;;;;;;;;;5027286;28;20170;-61
2022/01/08 11:27:24;;;;;;;11.40;6.38;;;;;;;;;;5028728;28;20216;-61
2022/01/08 11:29:56;;;;;;;11.20;6.78;;;;;;;;;;5031453;28;20234;-61
2022/01/08 11:32:23;;;;;;;12.35;6.93;;;;;;;;;;5032987;28;20356;-61
2022/01/08 11:34:49;;;;;;;11.05;7.40;;;;;;;;;;5034827;28;20189;-60
2022/01/08 11:37:16;;;;;;;13.05;7.22;;;;;;;;;;5035495;28;20177;-61
2022/01/08 11:39:44;;;;;;;11.95;6.88;;;;;;;;;;5034949;28;20171;-61
2022/01/08 11:42:13;;;;;;;11.38;6.47;;;;;;;;;;5034738;28;20177;-61
2022/01/08 11:44:39;;;;;;;15.57;7.85;;;;;;;;;;5034587;28;20213;-61
2022/01/08 11:47:05;;;;;;;12.35;6.97;;;;;;;;;;5027009;28;20170;-61
2022/01/08 11:49:31;;;;;;;12.88;6.80;;;;;;;;;;5014163;28;20161;-61
2022/01/08 11:52:15;;;;;;;11.55;6.65;;;;;;;;;;5014040;28;20174;-60
2022/01/08 11:54:45;;;;;;;11.05;6.65;;;;;;;;;;5014074;28;20244;-60
2022/01/08 11:57:15;;;;;;;12.75;6.95;;;;;;;;;;5014222;28;20173;-60
2022/01/08 11:59:41;;;;;;;10.00;6.22;;;;;;;;;;5013637;28;20162;-60
2022/01/08 12:02:09;;;;;;;12.18;7.18;;;;;;;;;;5013700;28;20185;-60
2022/01/08 12:04:35;;;;;;;14.93;7.40;;;;;;;;;;5013765;28;20176;-60
2022/01/08 12:07:21;;;;;;;12.02;6.60;;;;;;;;;;5013767;28;20253;-60
2022/01/08 12:09:47;;;;;;;11.32;6.40;;;;;;;;;;5013581;28;20177;-60
2022/01/08 12:12:13;;;;;;;11.27;6.68;;;;;;;;;;5014040;28;20321;-60
2022/01/08 12:14:39;;;;;;;9.85;6.70;;;;;;;;;;5013846;28;20259;-60
2022/01/08 12:17:18;;;;;;;9.07;6.03;;;;;;;;;;5013797;28;20205;-60
2022/01/08 12:19:50;;;;;;;10.82;6.63;;;;;;;;;;5013898;28;20188;-60
2022/01/08 12:22:16;;;;;;;12.07;6.80;;;;;;;;;;5013635;28;20602;-60
2022/01/08 12:24:43;;;;;;;10.98;6.20;;;;;;;;;;5017601;28;20253;-60
2022/01/08 12:27:27;;;;;;;10.85;6.55;;;;;;;;;;5017616;28;20471;-60
2022/01/08 12:29:53;;;;;;;10.38;6.20;;;;;;;;;;5017587;28;20189;-60
2022/01/08 12:32:28;;;;;;;13.02;6.43;;;;;;;;;;5017226;28;20181;-61
2022/01/08 12:35:01;;;;;;;10.77;6.57;;;;;;;;;;5017414;28;20189;-60
2022/01/08 12:37:41;;;;;;;9.57;5.80;;;;;;;;;;5017645;28;20173;-60
2022/01/08 12:40:08;;;;;;;11.45;6.20;;;;;;;;;;5017383;28;20181;-61
2022/01/08 12:42:36;;;;;;;12.13;6.28;;;;;;;;;;5017110;28;20166;-61
2022/01/08 12:45:04;;;;;;;12.70;6.88;;;;;;;;;;5017365;28;20182;-61
2022/01/08 12:47:49;;;;;;;12.60;6.82;;;;;;;;;;5017560;28;20227;-60
2022/01/08 12:50:18;;;;;;;13.13;6.60;;;;;;;;;;5016869;28;20167;-60
2022/01/08 12:53:02;;;;;;;11.77;7.07;;;;;;;;;;5016874;28;20216;-60
2022/01/08 12:55:28;;;;;;;10.68;6.72;;;;;;;;;;5016915;28;20565;-60
2022/01/08 12:57:55;;;;;;;10.82;6.15;;;;;;;;;;5017153;28;20166;-60
2022/01/08 13:00:21;;;;;;;13.65;6.25;;;;;;;;;;5016979;28;20166;-60
2022/01/08 13:02:47;;;;;;;11.40;5.60;;;;;;;;;;5016968;28;20245;-61
2022/01/08 13:05:13;;;;;;;10.93;5.90;;;;;;;;;;5016918;28;20181;-60
2022/01/08 13:07:49;;;;;;;8.82;5.70;;;;;;;;;;5016804;28;20170;-60
2022/01/08 13:10:16;;;;;;;12.23;5.90;;;;;;;;;;5016724;28;20170;-60
2022/01/08 13:12:42;;;;;;;9.93;6.32;;;;;;;;;;5016914;28;20200;-58
2022/01/08 13:15:08;;;;;;;11.15;6.05;;;;;;;;;;5016566;28;20186;-60
2022/01/08 13:17:34;;;;;;;11.57;6.43;;;;;;;;;;5016856;28;20166;-61
2022/01/08 13:20:04;;;;;;;10.43;6.15;;;;;;;;;;5016473;28;20162;-61
2022/01/08 13:22:31;;;;;;;14.13;5.97;;;;;;;;;;5016316;28;20411;-61
2022/01/08 13:24:57;;;;;;;11.20;5.88;;;;;;;;;;5016315;28;20158;-61
2022/01/08 13:27:24;;;;;;;13.65;6.43;;;;;;;;;;5016338;28;20174;-61
2022/01/08 13:29:54;;;;;;;10.50;6.03;;;;;;;;;;5016558;28;20289;-61
2022/01/08 13:32:21;;;;;;;10.15;5.78;;;;;;;;;;5016041;28;20590;-61
2022/01/08 13:34:47;;;;;;;10.30;5.30;;;;;;;;;;5015772;28;20251;-61
2022/01/08 13:37:17;;;;;;;10.20;5.63;;;;;;;;;;5016193;28;20178;-61
2022/01/08 13:39:45;;;;;;;10.02;6.10;;;;;;;;;;5015814;28;20180;-61
2022/01/08 13:42:12;;;;;;;8.52;6.00;;;;;;;;;;5015970;28;20228;-61
2022/01/08 13:44:39;;;;;;;13.05;5.80;;;;;;;;;;5016089;28;20185;-62
2022/01/08 13:47:05;;;;;;;10.85;6.55;;;;;;;;;;5015965;28;20228;-61
2022/01/08 13:49:31;;;;;;;10.57;5.32;;;;;;;;;;5016003;28;20171;-61
2022/01/08 13:51:57;;;;;;;11.85;6.60;;;;;;;;;;5015749;28;20170;-60
2022/01/08 13:54:34;;;;;;;13.65;5.90;;;;;;;;;;5015343;28;20224;-60
2022/01/08 13:57:11;;;;;;;11.00;5.88;;;;;;;;;;5015850;28;20162;-60
2022/01/08 13:59:37;;;;;;;10.77;6.15;;;;;;;;;;5015888;28;20142;-60
2022/01/08 14:02:03;;;;;;;11.38;5.97;;;;;;;;;;5015953;28;20514;-59
2022/01/08 14:04:29;;;;;;;12.32;5.90;;;;;;;;;;5015492;28;20170;-60
2022/01/08 14:06:58;;;;;;;9.48;5.85;;;;;;;;;;5015547;28;20221;-60
2022/01/08 14:09:24;;;;;;;10.32;5.82;;;;;;;;;;5016071;28;20204;-58
2022/01/08 14:11:50;;;;;;;10.60;5.82;;;;;;;;;;5015445;28;20170;-59
2022/01/08 14:14:18;;;;;;;11.15;5.88;;;;;;;;;;5015634;28;20166;-61
2022/01/08 14:16:44;;;;;;;11.10;5.65;;;;;;;;;;5015330;28;20162;-60
2022/01/08 14:19:17;;;;;;;8.38;4.70;;;;;;;;;;5015602;28;20229;-60
2022/01/08 14:21:57;;;;;;;9.48;5.40;;;;;;;;;;5015176;28;20236;-60
2022/01/08 14:24:25;;;;;;;9.45;5.40;;;;;;;;;;5015478;28;20172;-60
2022/01/08 14:27:04;;;;;;;9.85;5.13;;;;;;;;;;5015005;28;20174;-60
2022/01/08 14:29:30;;;;;;;9.98;5.70;;;;;;;;;;5015728;28;20205;-59
2022/01/08 14:32:04;;;;;;;9.13;5.25;;;;;;;;;;5016410;28;20190;-59
2022/01/08 14:34:30;;;;;;;9.15;5.15;;;;;;;;;;5015884;28;20288;-59
2022/01/08 14:37:00;;;;;;;12.68;5.05;;;;;;;;;;5015256;28;20489;-60
2022/01/08 14:39:35;;;;;;;10.35;5.57;;;;;;;;;;5015791;28;20172;-60
2022/01/08 14:42:20;;;;;;;9.38;5.38;;;;;;;;;;5015874;28;20197;-60
2022/01/08 14:44:53;;;;;;;10.27;6.00;;;;;;;;;;5015369;28;20582;-60
2022/01/08 14:47:38;;;;;;;8.80;5.75;;;;;;;;;;5015661;28;20178;-60